createdAt,value
2023-03-07T00:00:46.378Z,-5.05
2023-03-07T00:03:14.746Z,-5.08
2023-03-07T00:05:41.885Z,-5.08
2023-03-07T00:08:09.271Z,-5.12
2023-03-07T00:10:35.914Z,-5.15
2023-03-07T00:13:04.111Z,-5.16
2023-03-07T00:15:30.976Z,-5.22
2023-03-07T00:17:58.300Z,-5.24
2023-03-07T00:20:24.955Z,-5.28
2023-03-07T00:22:51.588Z,-5.31
2023-03-07T00:25:18.266Z,-5.33
2023-03-07T00:27:44.894Z,-5.37
2023-03-07T00:30:14.629Z,-5.39
2023-03-07T00:32:41.312Z,-5.39
2023-03-07T00:35:08.382Z,-5.44
2023-03-07T00:37:34.975Z,-5.44
2023-03-07T00:40:01.748Z,-5.50
2023-03-07T00:42:28.362Z,-5.56
2023-03-07T00:44:54.967Z,-5.70
2023-03-07T00:47:21.828Z,-5.83
2023-03-07T00:49:48.509Z,-5.89
2023-03-07T00:52:15.145Z,-5.93
2023-03-07T00:54:41.761Z,-5.95
2023-03-07T00:57:08.364Z,-5.97
2023-03-07T00:59:34.968Z,-5.93
2023-03-07T01:02:01.595Z,-5.91
2023-03-07T01:04:28.423Z,-5.90
2023-03-07T01:06:55.068Z,-5.94
2023-03-07T01:09:21.716Z,-5.93
2023-03-07T01:11:49.498Z,-5.91
2023-03-07T01:14:16.176Z,-5.90
2023-03-07T01:16:42.906Z,-5.94
2023-03-07T01:19:12.800Z,-6.03
2023-03-07T01:21:42.139Z,-6.11
2023-03-07T01:24:13.436Z,-6.12
2023-03-07T01:26:40.168Z,-6.13
2023-03-07T01:29:07.825Z,-6.13
2023-03-07T01:31:35.097Z,-6.15
2023-03-07T01:34:02.381Z,-6.17
2023-03-07T01:36:33.045Z,-6.17
2023-03-07T01:39:06.751Z,-6.17
2023-03-07T01:41:38.417Z,-6.18
2023-03-07T01:44:16.872Z,-6.18
2023-03-07T01:46:50.499Z,-6.20
2023-03-07T01:49:42.921Z,-6.19
2023-03-07T01:52:14.869Z,-6.23
2023-03-07T01:54:48.928Z,-6.26
2023-03-07T01:57:19.520Z,-6.27
2023-03-07T01:59:49.273Z,-6.28
2023-03-07T02:02:19.737Z,-6.30
2023-03-07T02:04:51.218Z,-6.31
2023-03-07T02:07:21.117Z,-6.36
2023-03-07T02:09:50.653Z,-6.38
2023-03-07T02:12:17.363Z,-6.42
2023-03-07T02:14:46.462Z,-6.43
2023-03-07T02:17:13.485Z,-6.49
2023-03-07T02:20:21.686Z,-6.58
2023-03-07T02:22:49.977Z,-6.64
2023-03-07T02:26:03.263Z,-6.71
2023-03-07T02:28:30.270Z,-6.71
2023-03-07T02:31:03.923Z,-6.73
2023-03-07T02:33:30.744Z,-6.73
2023-03-07T02:36:02.832Z,-6.71
2023-03-07T02:38:32.292Z,-6.73
2023-03-07T02:40:59.097Z,-6.75
2023-03-07T02:43:25.979Z,-6.77
2023-03-07T02:45:52.856Z,-6.77
2023-03-07T02:48:19.504Z,-6.74
2023-03-07T02:50:48.308Z,-6.72
2023-03-07T02:53:15.956Z,-6.71
2023-03-07T02:55:42.684Z,-6.73
2023-03-07T02:58:09.324Z,-6.77
2023-03-07T03:00:37.138Z,-6.80
2023-03-07T03:03:04.076Z,-6.81
2023-03-07T03:05:30.726Z,-6.83
2023-03-07T03:07:57.445Z,-6.82
2023-03-07T03:10:24.273Z,-6.82
2023-03-07T03:12:50.945Z,-6.83
2023-03-07T03:15:17.745Z,-6.86
2023-03-07T03:17:44.445Z,-6.93
2023-03-07T03:20:12.906Z,-6.95
2023-03-07T03:22:40.815Z,-6.95
2023-03-07T03:25:10.038Z,-6.96
2023-03-07T03:27:38.103Z,-6.97
2023-03-07T03:30:06.699Z,-7.00
2023-03-07T03:32:33.763Z,-7.06
2023-03-07T03:35:00.630Z,-7.09
2023-03-07T03:37:27.587Z,-7.11
2023-03-07T03:39:56.933Z,-7.17
2023-03-07T03:42:23.941Z,-7.19
2023-03-07T03:44:50.554Z,-7.20
2023-03-07T03:47:17.277Z,-7.21
2023-03-07T03:49:43.962Z,-7.22
2023-03-07T03:52:10.628Z,-7.22
2023-03-07T03:54:37.305Z,-7.23
2023-03-07T03:57:04.087Z,-7.26
2023-03-07T03:59:30.803Z,-7.27
2023-03-07T04:01:57.534Z,-7.27
2023-03-07T04:04:24.180Z,-7.31
2023-03-07T04:06:51.086Z,-7.36
2023-03-07T04:09:17.800Z,-7.40
2023-03-07T04:11:44.409Z,-7.45
2023-03-07T04:14:11.380Z,-7.45
2023-03-07T04:16:38.102Z,-7.44
2023-03-07T04:19:04.826Z,-7.47
2023-03-07T04:21:31.468Z,-7.54
2023-03-07T04:23:58.505Z,-7.60
2023-03-07T04:26:25.759Z,-7.58
2023-03-07T04:28:52.490Z,-7.59
2023-03-07T04:31:25.832Z,-7.59
2023-03-07T04:33:54.559Z,-7.58
2023-03-07T04:36:22.396Z,-7.59
2023-03-07T04:38:50.106Z,-7.63
2023-03-07T04:41:19.524Z,-7.68
2023-03-07T04:43:46.446Z,-7.69
2023-03-07T04:46:14.889Z,-7.68
2023-03-07T04:48:42.373Z,-7.70
2023-03-07T04:51:09.264Z,-7.75
2023-03-07T04:53:36.020Z,-7.82
2023-03-07T04:56:05.541Z,-7.95
2023-03-07T04:58:33.380Z,-7.99
2023-03-07T05:01:02.320Z,-7.96
2023-03-07T05:03:29.786Z,-7.92
2023-03-07T05:05:56.399Z,-7.89
2023-03-07T05:08:23.187Z,-7.84
2023-03-07T05:10:49.934Z,-7.77
2023-03-07T05:13:16.573Z,-7.75
2023-03-07T05:15:44.041Z,-7.73
2023-03-07T05:18:10.667Z,-7.72
2023-03-07T05:20:38.085Z,-7.73
2023-03-07T05:23:04.744Z,-7.75
2023-03-07T05:25:31.734Z,-7.74
2023-03-07T05:27:58.365Z,-7.72
2023-03-07T05:30:24.996Z,-7.69
2023-03-07T05:32:51.776Z,-7.67
2023-03-07T05:35:19.211Z,-7.68
2023-03-07T05:37:45.852Z,-7.68
2023-03-07T05:40:14.028Z,-7.68
2023-03-07T05:42:40.652Z,-7.65
2023-03-07T05:45:07.863Z,-7.64
2023-03-07T05:47:34.504Z,-7.61
2023-03-07T05:50:01.293Z,-7.61
2023-03-07T05:52:28.834Z,-7.60
2023-03-07T05:54:55.825Z,-7.60
2023-03-07T05:57:23.290Z,-7.59
2023-03-07T05:59:49.965Z,-7.60
2023-03-07T06:02:17.012Z,-7.61
2023-03-07T06:04:44.229Z,-7.63
2023-03-07T06:07:10.837Z,-7.65
2023-03-07T06:09:37.436Z,-7.65
2023-03-07T06:12:04.321Z,-7.64
2023-03-07T06:14:32.406Z,-7.64
2023-03-07T06:16:59.044Z,-7.67
2023-03-07T06:19:25.799Z,-7.71
2023-03-07T06:21:52.404Z,-7.78
2023-03-07T06:24:19.040Z,-7.78
2023-03-07T06:26:45.655Z,-7.77
2023-03-07T06:29:12.286Z,-7.75
2023-03-07T06:31:38.995Z,-7.70
2023-03-07T06:34:05.742Z,-7.65
2023-03-07T06:36:32.445Z,-7.60
2023-03-07T06:39:02.207Z,-7.53
2023-03-07T06:41:28.985Z,-7.53
2023-03-07T06:43:55.662Z,-7.50
2023-03-07T06:46:22.562Z,-7.46
2023-03-07T06:48:51.192Z,-7.43
2023-03-07T06:51:18.252Z,-7.39
2023-03-07T06:53:44.962Z,-7.34
2023-03-07T06:56:11.634Z,-7.30
2023-03-07T06:58:38.238Z,-7.25
2023-03-07T07:01:05.043Z,-7.20
2023-03-07T07:03:31.698Z,-7.13
2023-03-07T07:05:58.420Z,-7.10
2023-03-07T07:08:25.050Z,-7.03
2023-03-07T07:10:51.677Z,-6.98
2023-03-07T07:13:18.320Z,-6.94
2023-03-07T07:15:44.965Z,-6.86
2023-03-07T07:18:14.049Z,-6.80
2023-03-07T07:20:40.865Z,-6.73
2023-03-07T07:23:07.482Z,-6.62
2023-03-07T07:25:34.147Z,-6.56
2023-03-07T07:28:00.751Z,-6.46
2023-03-07T07:30:28.021Z,-6.37
2023-03-07T07:32:54.835Z,-6.26
2023-03-07T07:35:22.361Z,-6.16
2023-03-07T07:37:49.043Z,-6.07
2023-03-07T07:40:15.762Z,-5.97
2023-03-07T07:42:43.633Z,-5.84
2023-03-07T07:45:10.826Z,-5.74
2023-03-07T07:47:37.520Z,-5.62
2023-03-07T07:50:04.620Z,-5.53
2023-03-07T07:52:31.252Z,-5.39
2023-03-07T07:54:57.861Z,-5.27
2023-03-07T07:57:24.534Z,-5.16
2023-03-07T07:59:51.288Z,-5.05
2023-03-07T08:02:17.954Z,-4.93
2023-03-07T08:04:46.096Z,-4.82
2023-03-07T08:07:14.178Z,-4.70
2023-03-07T08:09:40.812Z,-4.61
2023-03-07T08:12:09.982Z,-4.51
2023-03-07T08:14:36.700Z,-4.37
2023-03-07T08:17:03.591Z,-4.22
2023-03-07T08:19:30.295Z,-4.10
2023-03-07T08:21:57.022Z,-3.96
2023-03-07T08:24:35.223Z,-3.84
2023-03-07T08:27:06.772Z,-3.69
2023-03-07T08:29:33.712Z,-3.57
2023-03-07T08:32:00.353Z,-3.41
2023-03-07T08:34:26.964Z,-3.26
2023-03-07T08:36:53.616Z,-3.12
2023-03-07T08:39:20.219Z,-2.95
2023-03-07T08:41:46.814Z,-2.79
2023-03-07T08:44:13.422Z,-2.62
2023-03-07T08:46:40.080Z,-2.50
2023-03-07T08:49:06.829Z,-2.40
2023-03-07T08:51:33.491Z,-2.29
2023-03-07T08:54:00.188Z,-2.19
2023-03-07T08:56:27.351Z,-2.08
2023-03-07T08:58:54.646Z,-1.97
2023-03-07T09:01:21.566Z,-1.88
2023-03-07T09:03:48.258Z,-1.81
2023-03-07T09:06:20.829Z,-1.75
2023-03-07T09:08:49.018Z,-1.68
2023-03-07T09:11:16.839Z,-1.62
2023-03-07T09:13:51.916Z,-1.56
2023-03-07T09:16:20.351Z,-1.51
2023-03-07T09:18:47.079Z,-1.45
2023-03-07T09:21:13.803Z,-1.39
2023-03-07T09:23:40.460Z,-1.34
2023-03-07T09:26:07.096Z,-1.27
2023-03-07T09:28:33.757Z,-1.19
2023-03-07T09:31:00.595Z,-1.13
2023-03-07T09:33:27.630Z,-1.07
2023-03-07T09:35:54.405Z,-1.01
2023-03-07T09:38:21.052Z,-0.95
2023-03-07T09:40:48.366Z,-0.89
2023-03-07T09:43:17.871Z,-0.84
2023-03-07T09:46:02.939Z,-0.78
2023-03-07T09:48:49.570Z,-0.71
2023-03-07T09:51:25.289Z,-0.65
2023-03-07T09:53:57.723Z,-0.61
2023-03-07T09:56:31.063Z,-0.56
2023-03-07T09:59:08.553Z,-0.51
2023-03-07T10:01:44.481Z,-0.44
2023-03-07T10:04:17.965Z,-0.38
2023-03-07T10:06:48.619Z,-0.35
2023-03-07T10:09:21.008Z,-0.32
2023-03-07T10:11:53.694Z,-0.29
2023-03-07T10:14:29.440Z,-0.28
2023-03-07T10:17:02.028Z,-0.29
2023-03-07T10:19:44.619Z,-0.28
2023-03-07T10:22:20.656Z,-0.27
2023-03-07T10:25:12.450Z,-0.23
2023-03-07T10:27:39.456Z,-0.19
2023-03-07T10:30:17.856Z,-0.17
2023-03-07T10:32:47.546Z,-0.12
2023-03-07T10:35:24.353Z,-0.08
2023-03-07T10:38:09.649Z,-0.05
2023-03-07T10:40:48.865Z,0.01
2023-03-07T10:43:23.715Z,0.07
2023-03-07T10:46:24.771Z,0.12
2023-03-07T10:48:55.135Z,0.17
2023-03-07T10:51:35.025Z,0.19
2023-03-07T10:54:02.898Z,0.25
2023-03-07T10:56:29.638Z,0.27
2023-03-07T10:59:00.845Z,0.30
2023-03-07T11:01:28.194Z,0.34
2023-03-07T11:04:05.121Z,0.37
2023-03-07T11:06:31.715Z,0.40
2023-03-07T11:09:15.951Z,0.41
2023-03-07T11:11:52.644Z,0.39
2023-03-07T11:14:20.515Z,0.38
2023-03-07T11:17:00.163Z,0.35
2023-03-07T11:19:40.723Z,0.37
2023-03-07T11:22:28.709Z,0.37
2023-03-07T11:25:26.665Z,0.40
2023-03-07T11:27:58.112Z,0.38
2023-03-07T11:30:28.044Z,0.35
2023-03-07T11:33:08.234Z,0.34
2023-03-07T11:35:43.154Z,0.35
2023-03-07T11:38:44.547Z,0.32
2023-03-07T11:41:19.940Z,0.28
2023-03-07T11:43:52.313Z,0.32
2023-03-07T11:46:41.349Z,0.36
2023-03-07T11:49:44.478Z,0.40
2023-03-07T11:52:14.295Z,0.45
2023-03-07T11:54:50.846Z,0.48
2023-03-07T11:57:40.281Z,0.51
2023-03-07T12:00:41.579Z,0.54
2023-03-07T12:03:08.227Z,0.54
2023-03-07T12:05:34.889Z,0.52
2023-03-07T12:08:15.344Z,0.52
2023-03-07T12:11:04.887Z,0.53
2023-03-07T12:13:40.702Z,0.51
2023-03-07T12:16:41.493Z,0.52
2023-03-07T12:19:25.039Z,0.49
2023-03-07T12:22:16.407Z,0.47
2023-03-07T12:25:17.662Z,0.49
2023-03-07T12:27:56.394Z,0.51
2023-03-07T12:30:30.920Z,0.55
2023-03-07T12:32:58.371Z,0.55
2023-03-07T12:35:25.469Z,0.57
2023-03-07T12:37:56.545Z,0.60
2023-03-07T12:40:35.731Z,0.59
2023-03-07T12:43:16.628Z,0.61
2023-03-07T12:45:57.711Z,0.61
2023-03-07T12:48:45.624Z,0.61
2023-03-07T12:51:27.016Z,0.59
2023-03-07T12:54:08.740Z,0.56
2023-03-07T12:56:59.598Z,0.52
2023-03-07T12:59:27.320Z,0.49
2023-03-07T13:02:04.085Z,0.49
2023-03-07T13:04:39.319Z,0.50
2023-03-07T13:07:11.332Z,0.50
2023-03-07T13:09:44.345Z,0.52
2023-03-07T13:12:16.174Z,0.52
2023-03-07T13:14:56.302Z,0.53
2023-03-07T13:17:33.260Z,0.52
2023-03-07T13:20:15.287Z,0.46
2023-03-07T13:22:41.949Z,0.43
2023-03-07T13:25:21.073Z,0.39
2023-03-07T13:27:51.653Z,0.40
2023-03-07T13:30:21.746Z,0.38
2023-03-07T13:32:48.462Z,0.37
2023-03-07T13:35:24.375Z,0.39
2023-03-07T13:37:57.062Z,0.39
2023-03-07T13:40:37.762Z,0.36
2023-03-07T13:43:27.286Z,0.31
2023-03-07T13:46:14.616Z,0.28
2023-03-07T13:48:41.217Z,0.26
2023-03-07T13:51:09.462Z,0.25
2023-03-07T13:53:50.959Z,0.25
2023-03-07T13:56:24.860Z,0.24
2023-03-07T13:59:09.961Z,0.26
2023-03-07T14:01:39.560Z,0.23
2023-03-07T14:04:16.951Z,0.20
2023-03-07T14:06:58.280Z,0.20
2023-03-07T14:09:39.580Z,0.20
2023-03-07T14:12:18.271Z,0.20
2023-03-07T14:14:47.802Z,0.19
2023-03-07T14:17:14.348Z,0.19
2023-03-07T14:19:49.719Z,0.17
2023-03-07T14:22:22.292Z,0.14
2023-03-07T14:25:10.807Z,0.09
2023-03-07T14:27:57.681Z,0.03
2023-03-07T14:30:28.044Z,-0.03
2023-03-07T14:32:55.055Z,-0.06
2023-03-07T14:35:45.223Z,-0.07
2023-03-07T14:38:24.711Z,-0.10
2023-03-07T14:41:08.969Z,-0.12
2023-03-07T14:43:54.274Z,-0.15
2023-03-07T14:46:59.924Z,-0.21
2023-03-07T14:49:45.802Z,-0.25
2023-03-07T14:52:29.659Z,-0.30
2023-03-07T14:55:01.824Z,-0.35
2023-03-07T14:57:36.745Z,-0.35
2023-03-07T15:00:15.768Z,-0.37
2023-03-07T15:02:54.525Z,-0.42
2023-03-07T15:05:30.504Z,-0.44
2023-03-07T15:07:57.778Z,-0.45
2023-03-07T15:10:34.737Z,-0.49
2023-03-07T15:13:05.055Z,-0.55
2023-03-07T15:15:44.894Z,-0.59
2023-03-07T15:18:26.911Z,-0.62
2023-03-07T15:20:56.376Z,-0.63
2023-03-07T15:23:27.801Z,-0.65
2023-03-07T15:26:05.128Z,-0.66
2023-03-07T15:28:36.944Z,-0.68
2023-03-07T15:31:05.203Z,-0.70
2023-03-07T15:33:35.822Z,-0.78
2023-03-07T15:36:14.318Z,-0.81
2023-03-07T15:38:50.403Z,-0.84
2023-03-07T15:41:35.975Z,-0.83
2023-03-07T15:44:11.680Z,-0.84
2023-03-07T15:46:43.277Z,-0.89
2023-03-07T15:49:50.106Z,-0.91
2023-03-07T15:52:37.809Z,-0.97
2023-03-07T15:55:08.250Z,-1.02
2023-03-07T15:57:40.424Z,-1.04
2023-03-07T16:00:16.661Z,-1.07
2023-03-07T16:02:50.672Z,-1.10
2023-03-07T16:05:20.856Z,-1.11
2023-03-07T16:07:49.199Z,-1.12
2023-03-07T16:10:16.155Z,-1.12
2023-03-07T16:12:46.569Z,-1.14
2023-03-07T16:15:17.963Z,-1.17
2023-03-07T16:17:45.354Z,-1.18
2023-03-07T16:20:18.714Z,-1.21
2023-03-07T16:22:47.191Z,-1.24
2023-03-07T16:25:15.759Z,-1.26
2023-03-07T16:27:54.897Z,-1.28
2023-03-07T16:30:24.395Z,-1.30
2023-03-07T16:32:51.108Z,-1.31
2023-03-07T16:35:21.412Z,-1.31
2023-03-07T16:37:48.032Z,-1.31
2023-03-07T16:40:16.104Z,-1.31
2023-03-07T16:42:45.209Z,-1.30
2023-03-07T16:45:18.812Z,-1.35
2023-03-07T16:47:47.121Z,-1.40
2023-03-07T16:50:18.817Z,-1.42
2023-03-07T16:52:45.457Z,-1.40
2023-03-07T16:55:14.527Z,-1.42
2023-03-07T16:57:46.481Z,-1.45
2023-03-07T17:00:16.967Z,-1.50
2023-03-07T17:02:45.209Z,-1.51
2023-03-07T17:05:25.794Z,-1.50
2023-03-07T17:07:53.647Z,-1.51
2023-03-07T17:10:20.864Z,-1.51
2023-03-07T17:12:50.162Z,-1.52
2023-03-07T17:15:19.986Z,-1.53
2023-03-07T17:17:46.751Z,-1.57
2023-03-07T17:20:20.483Z,-1.61
2023-03-07T17:22:47.191Z,-1.61
2023-03-07T17:25:13.852Z,-1.60
2023-03-07T17:27:57.574Z,-1.59
2023-03-07T17:30:27.143Z,-1.63
2023-03-07T17:32:54.188Z,-1.65
2023-03-07T17:35:21.937Z,-1.64
2023-03-07T17:37:51.700Z,-1.62
2023-03-07T17:40:19.162Z,-1.60
2023-03-07T17:42:48.227Z,-1.61
2023-03-07T17:45:14.840Z,-1.62
2023-03-07T17:47:41.496Z,-1.61
2023-03-07T17:50:09.631Z,-1.62
2023-03-07T17:52:36.787Z,-1.64
2023-03-07T17:55:03.775Z,-1.63
2023-03-07T17:57:30.413Z,-1.63
2023-03-07T17:59:57.011Z,-1.62
2023-03-07T18:02:23.917Z,-1.64
2023-03-07T18:04:51.646Z,-1.65
2023-03-07T18:07:19.796Z,-1.63
2023-03-07T18:09:48.454Z,-1.63
2023-03-07T18:12:18.299Z,-1.63
2023-03-07T18:14:44.993Z,-1.59
2023-03-07T18:17:11.675Z,-1.58
2023-03-07T18:19:39.339Z,-1.60
2023-03-07T18:22:06.566Z,-1.59
2023-03-07T18:24:33.291Z,-1.59
2023-03-07T18:27:01.152Z,-1.57
2023-03-07T18:29:29.102Z,-1.55
2023-03-07T18:31:55.922Z,-1.54
2023-03-07T18:34:24.715Z,-1.53
2023-03-07T18:36:53.052Z,-1.53
2023-03-07T18:39:22.686Z,-1.53
2023-03-07T18:41:50.045Z,-1.50
2023-03-07T18:44:18.654Z,-1.49
2023-03-07T18:46:46.083Z,-1.45
2023-03-07T18:49:13.085Z,-1.41
2023-03-07T18:51:40.260Z,-1.40
2023-03-07T18:54:08.983Z,-1.40
2023-03-07T18:56:35.624Z,-1.41
2023-03-07T18:59:02.284Z,-1.41
2023-03-07T19:01:31.542Z,-1.40
2023-03-07T19:04:01.363Z,-1.39
2023-03-07T19:06:38.765Z,-1.38
2023-03-07T19:09:05.520Z,-1.36
2023-03-07T19:11:32.485Z,-1.35
2023-03-07T19:13:59.577Z,-1.34
2023-03-07T19:16:28.219Z,-1.35
2023-03-07T19:18:55.845Z,-1.35
2023-03-07T19:21:24.704Z,-1.32
2023-03-07T19:23:53.263Z,-1.33
2023-03-07T19:26:21.367Z,-1.32
2023-03-07T19:28:50.709Z,-1.30
2023-03-07T19:31:18.825Z,-1.26
2023-03-07T19:33:47.104Z,-1.22
2023-03-07T19:36:41.823Z,-1.22
2023-03-07T19:39:10.548Z,-1.19
2023-03-07T19:41:40.194Z,-1.18
2023-03-07T19:44:12.085Z,-1.16
2023-03-07T19:46:38.894Z,-1.16
2023-03-07T19:49:05.520Z,-1.14
2023-03-07T19:51:32.133Z,-1.12
2023-03-07T19:53:58.749Z,-1.11
2023-03-07T19:56:31.819Z,-1.11
2023-03-07T19:59:00.809Z,-1.12
2023-03-07T20:01:28.927Z,-1.13
2023-03-07T20:03:55.896Z,-1.09
2023-03-07T20:06:31.008Z,-1.06
2023-03-07T20:08:59.746Z,-1.03
2023-03-07T20:11:29.805Z,-1.04
2023-03-07T20:13:58.737Z,-1.03
2023-03-07T20:16:29.137Z,-1.01
2023-03-07T20:19:01.546Z,-1.00
2023-03-07T20:21:28.890Z,-0.99
2023-03-07T20:23:59.406Z,-0.98
2023-03-07T20:26:32.567Z,-0.96
2023-03-07T20:29:01.306Z,-0.96
2023-03-07T20:31:28.967Z,-0.96
2023-03-07T20:33:58.341Z,-0.98
2023-03-07T20:36:30.292Z,-0.98
2023-03-07T20:38:58.973Z,-0.94
2023-03-07T20:41:28.547Z,-0.94
2023-03-07T20:44:02.581Z,-0.92
2023-03-07T20:46:31.171Z,-0.90
2023-03-07T20:49:00.030Z,-0.87
2023-03-07T20:51:29.066Z,-0.87
2023-03-07T20:53:59.113Z,-0.88
2023-03-07T20:56:27.754Z,-0.90
2023-03-07T20:58:55.493Z,-0.90
2023-03-07T21:01:23.625Z,-0.89
2023-03-07T21:03:51.603Z,-0.89
2023-03-07T21:06:18.751Z,-0.90
2023-03-07T21:08:47.550Z,-0.91
2023-03-07T21:11:20.343Z,-0.93
2023-03-07T21:13:49.447Z,-0.93
2023-03-07T21:16:21.441Z,-0.92
2023-03-07T21:18:48.765Z,-0.91
2023-03-07T21:21:22.112Z,-0.91
2023-03-07T21:23:49.129Z,-0.91
2023-03-07T21:26:19.508Z,-0.92
2023-03-07T21:28:47.113Z,-0.94
2023-03-07T21:31:13.747Z,-0.96
2023-03-07T21:33:42.543Z,-0.99
2023-03-07T21:36:10.814Z,-1.02
2023-03-07T21:38:39.769Z,-1.03
2023-03-07T21:41:07.460Z,-1.02
2023-03-07T21:43:34.100Z,-1.02
2023-03-07T21:46:06.541Z,-1.05
2023-03-07T21:48:33.946Z,-1.08
2023-03-07T21:51:01.237Z,-1.10
2023-03-07T21:53:28.139Z,-1.11
2023-03-07T21:55:58.023Z,-1.12
2023-03-07T21:58:25.219Z,-1.14
2023-03-07T22:00:53.651Z,-1.17
2023-03-07T22:03:20.573Z,-1.18
2023-03-07T22:05:47.224Z,-1.18
2023-03-07T22:08:16.056Z,-1.20
2023-03-07T22:10:43.276Z,-1.21
2023-03-07T22:13:10.372Z,-1.22
2023-03-07T22:15:40.357Z,-1.23
2023-03-07T22:18:07.109Z,-1.24
2023-03-07T22:20:33.736Z,-1.26
2023-03-07T22:23:00.378Z,-1.29
2023-03-07T22:25:26.992Z,-1.30
2023-03-07T22:27:53.680Z,-1.32
2023-03-07T22:30:20.461Z,-1.32
2023-03-07T22:32:47.173Z,-1.29
2023-03-07T22:35:13.833Z,-1.28
2023-03-07T22:37:41.827Z,-1.29
2023-03-07T22:40:09.308Z,-1.31
2023-03-07T22:42:35.932Z,-1.32
2023-03-07T22:45:02.543Z,-1.32
2023-03-07T22:47:31.147Z,-1.32
2023-03-07T22:49:57.773Z,-1.31
2023-03-07T22:52:24.820Z,-1.30
2023-03-07T22:54:54.144Z,-1.30
2023-03-07T22:57:21.091Z,-1.29
2023-03-07T22:59:48.549Z,-1.28
2023-03-07T23:02:15.166Z,-1.29
2023-03-07T23:04:42.036Z,-1.29
2023-03-07T23:07:08.713Z,-1.29
2023-03-07T23:09:35.406Z,-1.29
2023-03-07T23:12:02.078Z,-1.27
2023-03-07T23:14:28.723Z,-1.27
2023-03-07T23:16:55.329Z,-1.25
2023-03-07T23:19:21.961Z,-1.25
2023-03-07T23:21:48.612Z,-1.23
2023-03-07T23:24:15.231Z,-1.24
2023-03-07T23:26:42.035Z,-1.25
2023-03-07T23:29:09.986Z,-1.22
2023-03-07T23:31:38.840Z,-1.22
2023-03-07T23:34:08.339Z,-1.23
2023-03-07T23:36:35.308Z,-1.23
2023-03-07T23:39:02.095Z,-1.21
2023-03-07T23:41:28.759Z,-1.19
2023-03-07T23:43:57.624Z,-1.19
2023-03-07T23:46:24.756Z,-1.17
2023-03-07T23:48:52.146Z,-1.15
2023-03-07T23:51:19.424Z,-1.13
2023-03-07T23:53:46.280Z,-1.13
2023-03-07T23:56:13.448Z,-1.13
2023-03-07T23:58:40.250Z,-1.13
